Time;durP1;ratioP1;P1;durP2;ratioP2;P2;SDS_P1;SDS_P2;PMS_P1;PMS_P2;Temp;Humidity;BMP_temperature;BMP_pressure;BME280_temperature;BME280_humidity;BME280_pressure;Samples;Min_cycle;Max_cycle;Signal;HPM_P1;HPM_P2
2021/06/18 00:00:30;;;;;;;13.73;12.30;;;25.20;99.90;;;;;;4997734;28;20600;-68
2021/06/18 00:02:57;;;;;;;13.00;11.77;;;25.20;99.90;;;;;;4996264;28;20640;-68
2021/06/18 00:05:26;;;;;;;13.17;11.70;;;25.00;99.90;;;;;;4996507;28;20732;-68
2021/06/18 00:07:54;;;;;;;11.43;10.63;;;24.90;99.90;;;;;;4997810;28;20629;-68
2021/06/18 00:10:25;;;;;;;12.53;11.53;;;24.80;99.90;;;;;;4997563;28;20632;-68
2021/06/18 00:12:52;;;;;;;15.07;12.17;;;24.80;99.90;;;;;;4995978;28;20716;-68
2021/06/18 00:15:19;;;;;;;13.83;11.70;;;24.70;99.90;;;;;;4997350;28;20725;-68
2021/06/18 00:17:46;;;;;;;13.87;12.10;;;24.60;99.90;;;;;;4997034;28;20713;-67
2021/06/18 00:20:13;;;;;;;13.77;11.50;;;24.50;99.90;;;;;;4997234;28;20630;-67
2021/06/18 00:22:39;;;;;;;13.90;12.73;;;24.30;99.90;;;;;;4997435;28;21212;-68
2021/06/18 00:25:07;;;;;;;13.40;12.30;;;24.30;99.90;;;;;;4997624;28;21243;-68
2021/06/18 00:27:34;;;;;;;14.20;12.93;;;24.10;99.90;;;;;;4995930;28;20621;-68
2021/06/18 00:30:00;;;;;;;16.93;12.97;;;24.00;99.90;;;;;;4997247;28;20648;-67
2021/06/18 00:32:27;;;;;;;13.20;12.20;;;23.80;99.90;;;;;;4997144;28;20653;-67
2021/06/18 00:34:53;;;;;;;13.90;12.67;;;23.70;99.90;;;;;;4996205;28;21232;-68
2021/06/18 00:37:20;;;;;;;12.90;12.00;;;23.70;99.90;;;;;;4997205;28;20636;-68
2021/06/18 00:39:46;;;;;;;13.23;12.13;;;23.70;99.90;;;;;;4997291;28;20609;-68
2021/06/18 00:42:13;;;;;;;17.13;12.67;;;23.70;99.90;;;;;;4996959;28;20632;-67
2021/06/18 00:44:39;;;;;;;14.50;13.20;;;23.70;99.90;;;;;;4996756;28;20733;-68
2021/06/18 00:47:13;;;;;;;13.67;12.40;;;23.80;99.90;;;;;;4996952;28;20637;-68
2021/06/18 00:49:40;;;;;;;14.10;12.80;;;23.90;99.90;;;;;;4996884;28;21143;-67
2021/06/18 00:52:06;;;;;;;14.00;12.80;;;23.80;99.90;;;;;;4996663;28;20653;-67
2021/06/18 00:54:33;;;;;;;13.57;12.37;;;23.90;99.90;;;;;;4996757;28;21008;-67
2021/06/18 00:57:01;;;;;;;15.27;12.93;;;24.00;99.90;;;;;;4997010;28;20618;-67
2021/06/18 00:59:28;;;;;;;13.87;12.80;;;23.90;99.90;;;;;;4995240;28;20657;-67
2021/06/18 01:01:55;;;;;;;14.93;13.40;;;23.80;99.90;;;;;;4997525;28;20641;-66
2021/06/18 01:04:25;;;;;;;17.10;13.13;;;23.60;99.90;;;;;;4996721;28;20605;-66
2021/06/18 01:06:58;;;;;;;15.97;14.40;;;23.50;99.90;;;;;;4995445;28;20610;-67
2021/06/18 01:09:28;;;;;;;15.10;13.60;;;23.20;99.90;;;;;;4996919;28;20912;-67
2021/06/18 01:12:06;;;;;;;14.83;13.53;;;23.20;99.90;;;;;;4996163;28;20657;-66
2021/06/18 01:14:48;;;;;;;15.57;14.20;;;23.20;99.90;;;;;;4996848;28;20661;-66
2021/06/18 01:17:33;;;;;;;15.37;13.77;;;23.10;99.90;;;;;;4995352;28;20729;-66
2021/06/18 01:20:02;;;;;;;16.40;15.10;;;23.20;99.90;;;;;;4996289;28;20617;-66
2021/06/18 01:22:30;;;;;;;15.70;14.37;;;23.00;99.90;;;;;;4996616;28;20605;-66
2021/06/18 01:25:05;;;;;;;15.43;14.20;;;23.00;99.90;;;;;;4996730;28;20625;-66
2021/06/18 01:27:31;;;;;;;17.73;15.30;;;23.00;99.90;;;;;;4996411;28;20562;-66
2021/06/18 01:30:11;;;;;;;15.73;14.40;;;23.00;99.90;;;;;;4996332;28;20614;-66
2021/06/18 01:32:42;;;;;;;15.50;14.20;;;23.00;99.90;;;;;;4996173;28;20764;-66
2021/06/18 01:35:15;;;;;;;15.47;14.07;;;22.80;99.90;;;;;;4996315;28;20642;-66
2021/06/18 01:37:46;;;;;;;15.50;14.00;;;22.90;99.90;;;;;;4996276;28;20574;-66
2021/06/18 01:40:13;;;;;;;16.90;15.37;;;22.80;99.90;;;;;;4996048;28;20629;-66
2021/06/18 01:42:42;;;;;;;17.10;14.00;;;21.90;99.90;;;;;;4994415;28;20961;-66
2021/06/18 01:45:16;;;;;;;14.60;13.30;;;21.90;99.90;;;;;;4995713;28;20637;-66
2021/06/18 01:47:45;;;;;;;14.87;13.53;;;22.20;99.90;;;;;;4996045;28;21123;-66
2021/06/18 01:50:15;;;;;;;14.27;12.87;;;22.00;99.90;;;;;;4994806;28;21233;-66
2021/06/18 01:52:46;;;;;;;13.97;12.57;;;22.00;99.90;;;;;;4994965;28;20620;-66
2021/06/18 01:55:14;;;;;;;17.30;13.50;;;22.20;99.90;;;;;;4995804;28;20566;-66
2021/06/18 01:57:41;;;;;;;13.40;12.20;;;22.40;99.90;;;;;;4994291;28;20618;-66
2021/06/18 02:00:09;;;;;;;12.23;11.03;;;22.40;99.90;;;;;;4995657;28;20692;-66
2021/06/18 02:02:36;;;;;;;14.13;13.03;;;22.50;99.90;;;;;;4994334;28;20668;-66
2021/06/18 02:05:06;;;;;;;13.80;12.17;;;22.60;99.90;;;;;;4995743;28;21043;-66
2021/06/18 02:07:34;;;;;;;14.93;12.77;;;22.70;99.90;;;;;;4995548;28;20705;-65
2021/06/18 02:10:04;;;;;;;17.00;12.00;;;22.70;99.90;;;;;;4995391;28;20629;-65
2021/06/18 02:12:31;;;;;;;13.37;12.10;;;22.70;99.90;;;;;;4995527;28;20711;-65
2021/06/18 02:14:59;;;;;;;14.03;12.60;;;22.50;99.90;;;;;;4994993;28;20637;-65
2021/06/18 02:17:28;;;;;;;13.17;11.77;;;22.40;99.90;;;;;;4994763;28;20602;-66
2021/06/18 02:19:56;;;;;;;13.13;11.93;;;22.40;99.90;;;;;;4995220;28;20979;-65
2021/06/18 02:22:24;;;;;;;13.00;11.90;;;22.50;99.90;;;;;;4995051;28;20661;-65
2021/06/18 02:24:52;;;;;;;12.90;11.80;;;22.50;99.90;;;;;;4995207;28;21013;-65
2021/06/18 02:27:19;;;;;;;13.90;12.47;;;22.50;99.90;;;;;;4994139;28;20632;-65
2021/06/18 02:29:45;;;;;;;13.03;11.70;;;22.60;99.90;;;;;;4995264;28;21228;-66
2021/06/18 02:32:14;;;;;;;12.73;11.47;;;22.60;99.90;;;;;;4995102;28;20635;-65
2021/06/18 02:34:41;;;;;;;14.17;12.67;;;22.70;99.90;;;;;;4995087;28;20656;-65
2021/06/18 02:37:10;;;;;;;13.97;12.67;;;22.80;99.90;;;;;;4994555;28;20628;-65
2021/06/18 02:39:36;;;;;;;19.87;12.93;;;22.80;99.90;;;;;;4994338;28;20617;-65
2021/06/18 02:42:04;;;;;;;15.80;12.10;;;22.80;99.90;;;;;;4993471;28;20760;-65
2021/06/18 02:44:30;;;;;;;14.93;12.20;;;22.80;99.90;;;;;;4993384;28;20622;-65
2021/06/18 02:47:22;;;;;;;13.07;11.97;;;22.80;99.90;;;;;;4995039;28;20656;-65
2021/06/18 02:50:05;;;;;;;12.93;11.73;;;22.70;99.90;;;;;;4994733;28;20723;-65
2021/06/18 02:52:53;;;;;;;12.50;11.30;;;22.80;99.90;;;;;;4994811;28;20582;-65
2021/06/18 02:55:29;;;;;;;13.47;12.23;;;22.70;99.90;;;;;;4994796;28;20692;-65
2021/06/18 02:58:00;;;;;;;12.77;11.77;;;22.60;99.90;;;;;;4994968;28;20621;-65
2021/06/18 03:00:29;;;;;;;12.70;11.70;;;22.50;99.90;;;;;;4994482;28;20648;-65
2021/06/18 03:02:58;;;;;;;12.47;11.20;;;22.50;99.90;;;;;;4994174;28;21188;-65
2021/06/18 03:05:29;;;;;;;17.37;11.40;;;22.60;99.90;;;;;;4992678;28;21065;-65
2021/06/18 03:08:04;;;;;;;11.07;10.17;;;22.50;99.90;;;;;;4993932;28;20582;-65
2021/06/18 03:10:37;;;;;;;10.60;9.73;;;22.50;99.90;;;;;;4994043;28;20625;-65
2021/06/18 03:13:09;;;;;;;10.00;9.20;;;22.60;99.90;;;;;;4992430;28;20644;-65
2021/06/18 03:15:40;;;;;;;10.53;9.63;;;22.70;99.90;;;;;;4992465;28;20637;-65
2021/06/18 03:18:08;;;;;;;9.80;8.90;;;22.70;99.90;;;;;;4994516;28;20602;-65
2021/06/18 03:20:36;;;;;;;9.70;8.83;;;22.70;99.90;;;;;;4994194;28;20659;-65
2021/06/18 03:23:07;;;;;;;9.63;8.80;;;22.70;99.90;;;;;;4994324;28;21281;-65
2021/06/18 03:25:36;;;;;;;12.43;8.10;;;22.70;99.90;;;;;;4994077;28;20637;-65
2021/06/18 03:28:04;;;;;;;9.37;8.57;;;22.80;99.90;;;;;;4993296;28;20618;-65
2021/06/18 03:30:33;;;;;;;9.70;8.73;;;22.80;99.90;;;;;;4994111;28;20614;-65
2021/06/18 03:33:01;;;;;;;8.80;7.90;;;22.80;99.90;;;;;;4994088;28;21157;-65
2021/06/18 03:35:30;;;;;;;10.13;8.20;;;22.90;99.90;;;;;;4993937;28;21024;-65
2021/06/18 03:37:57;;;;;;;8.23;7.53;;;22.90;99.90;;;;;;4993018;28;20965;-65
2021/06/18 03:40:24;;;;;;;11.07;7.87;;;23.00;99.90;;;;;;4994038;28;20653;-65
2021/06/18 03:42:52;;;;;;;12.73;8.00;;;23.00;99.90;;;;;;4993980;28;20669;-65
2021/06/18 03:45:21;;;;;;;8.03;7.33;;;23.00;99.90;;;;;;4994349;28;20649;-65
2021/06/18 03:47:49;;;;;;;6.90;6.30;;;22.90;99.90;;;;;;4994505;28;20622;-65
2021/06/18 03:50:20;;;;;;;10.40;7.70;;;22.80;99.90;;;;;;4994291;28;20720;-65
2021/06/18 03:52:46;;;;;;;10.10;8.07;;;22.90;99.90;;;;;;5008566;28;21232;-65
2021/06/18 03:55:13;;;;;;;8.20;7.57;;;23.00;99.90;;;;;;4994200;28;20638;-65
2021/06/18 03:57:42;;;;;;;8.33;7.73;;;23.00;99.90;;;;;;4992259;28;20969;-65
2021/06/18 04:00:09;;;;;;;9.10;8.30;;;23.00;99.90;;;;;;5008482;28;20708;-65
2021/06/18 04:02:37;;;;;;;7.20;6.47;;;23.00;99.90;;;;;;4993654;28;20658;-65
2021/06/18 04:05:05;;;;;;;8.00;7.27;;;22.90;99.90;;;;;;4993629;28;20602;-65
2021/06/18 04:07:32;;;;;;;9.17;8.30;;;22.80;99.90;;;;;;4993781;28;20612;-65
2021/06/18 04:10:00;;;;;;;9.07;8.27;;;22.70;99.90;;;;;;4993793;28;20608;-65
2021/06/18 04:12:26;;;;;;;10.30;8.40;;;22.70;99.90;;;;;;4993589;28;20621;-65
2021/06/18 04:14:55;;;;;;;8.90;8.13;;;22.60;99.90;;;;;;4993509;28;20705;-65
2021/06/18 04:17:22;;;;;;;9.20;8.40;;;22.70;99.90;;;;;;4993536;28;20622;-65
2021/06/18 04:19:51;;;;;;;10.40;9.40;;;22.60;99.90;;;;;;4993968;28;21058;-65
2021/06/18 04:22:29;;;;;;;10.97;8.60;;;22.60;99.90;;;;;;4993440;28;20663;-65
2021/06/18 04:24:55;;;;;;;9.73;8.83;;;22.50;99.90;;;;;;4993498;28;20562;-65
2021/06/18 04:27:22;;;;;;;10.37;9.47;;;22.60;99.90;;;;;;4993598;28;20602;-65
2021/06/18 04:29:49;;;;;;;10.90;9.00;;;22.80;99.90;;;;;;4993439;28;20608;-65
2021/06/18 04:32:16;;;;;;;9.63;8.93;;;22.80;99.90;;;;;;4993517;28;20644;-65
2021/06/18 04:34:42;;;;;;;9.00;8.10;;;22.90;99.90;;;;;;4993727;28;20597;-65
2021/06/18 04:37:08;;;;;;;9.07;8.20;;;22.90;99.90;;;;;;4993652;28;20614;-65
2021/06/18 04:39:35;;;;;;;10.07;8.30;;;22.80;99.90;;;;;;4993479;28;20625;-65
2021/06/18 04:42:03;;;;;;;10.77;8.20;;;22.90;99.90;;;;;;4996032;28;20647;-65
2021/06/18 04:44:32;;;;;;;8.73;7.83;;;23.00;99.90;;;;;;4996842;28;20740;-65
2021/06/18 04:46:59;;;;;;;7.80;6.80;;;23.00;99.90;;;;;;4996716;28;20625;-65
2021/06/18 04:49:25;;;;;;;9.27;7.57;;;23.00;99.90;;;;;;4997229;28;20638;-65
2021/06/18 04:51:53;;;;;;;8.10;7.40;;;23.10;93.50;;;;;;4996699;28;20598;-65
2021/06/18 04:54:21;;;;;;;8.33;7.57;;;23.20;93.90;;;;;;4996661;28;20979;-65
2021/06/18 04:56:48;;;;;;;9.70;8.90;;;23.20;90.40;;;;;;4996810;28;20605;-65
2021/06/18 04:59:15;;;;;;;10.00;9.10;;;23.20;99.90;;;;;;4996648;28;20623;-65
2021/06/18 05:01:41;;;;;;;9.40;8.50;;;23.30;99.90;;;;;;5011658;28;20658;-65
2021/06/18 05:04:08;;;;;;;11.93;9.47;;;23.50;99.90;;;;;;4995257;28;21182;-65
2021/06/18 05:06:34;;;;;;;10.17;8.80;;;23.40;99.90;;;;;;4996567;28;20605;-65
2021/06/18 05:09:00;;;;;;;17.00;8.90;;;23.20;99.90;;;;;;4996518;28;20615;-65
2021/06/18 05:11:27;;;;;;;15.20;10.77;;;23.30;99.90;;;;;;4996432;28;20586;-65
2021/06/18 05:13:53;;;;;;;9.17;8.47;;;23.50;99.90;;;;;;4996324;28;21241;-65
2021/06/18 05:16:19;;;;;;;10.67;9.67;;;23.60;99.90;;;;;;4996347;28;20963;-65
2021/06/18 05:18:46;;;;;;;9.70;8.90;;;23.80;99.90;;;;;;4996567;28;20657;-65
2021/06/18 05:21:12;;;;;;;9.00;8.40;;;23.90;99.90;;;;;;4996227;28;20593;-65
2021/06/18 05:23:39;;;;;;;12.20;8.33;;;23.80;98.20;;;;;;4996464;28;21206;-65
2021/06/18 05:26:05;;;;;;;9.53;8.60;;;24.00;99.90;;;;;;4996207;28;20621;-65
2021/06/18 05:28:32;;;;;;;10.87;9.17;;;24.10;99.90;;;;;;5010855;28;20628;-65
2021/06/18 05:30:58;;;;;;;19.20;10.10;;;24.20;99.90;;;;;;4996644;28;20624;-65
2021/06/18 05:33:24;;;;;;;14.30;9.77;;;24.20;99.90;;;;;;4995916;28;20605;-65
2021/06/18 05:35:51;;;;;;;10.53;9.37;;;24.20;99.90;;;;;;4995838;28;20601;-65
2021/06/18 05:38:17;;;;;;;10.57;8.50;;;24.00;99.90;;;;;;4995720;28;20602;-65
2021/06/18 05:40:43;;;;;;;9.13;8.30;;;24.10;99.90;;;;;;4995962;28;20725;-64
2021/06/18 05:43:11;;;;;;;8.97;8.17;;;24.20;61.60;;;;;;4995736;28;20641;-65
2021/06/18 05:45:38;;;;;;;8.73;7.77;;;24.30;99.90;;;;;;4995470;28;20645;-65
2021/06/18 05:48:06;;;;;;;7.97;7.33;;;24.40;99.90;;;;;;4995697;28;20602;-65
2021/06/18 05:50:32;;;;;;;9.30;7.83;;;24.60;99.90;;;;;;4995413;28;20616;-64
2021/06/18 05:52:59;;;;;;;8.10;7.40;;;24.80;99.90;;;;;;4994746;28;20606;-65
2021/06/18 05:55:25;;;;;;;9.17;8.10;;;24.90;99.90;;;;;;4995423;28;20602;-65
2021/06/18 05:57:52;;;;;;;9.30;8.43;;;25.10;99.90;;;;;;4995935;28;20618;-65
2021/06/18 06:00:20;;;;;;;12.47;7.07;;;24.90;99.90;;;;;;4995610;28;20605;-65
2021/06/18 06:02:46;;;;;;;9.70;7.20;;;25.00;99.90;;;;;;4995264;28;20641;-65
2021/06/18 06:05:13;;;;;;;7.73;7.10;;;24.90;99.90;;;;;;4995415;28;20620;-65
2021/06/18 06:07:47;;;;;;;7.77;7.07;;;24.90;99.90;;;;;;4995463;28;20961;-64
2021/06/18 06:10:14;;;;;;;7.40;6.70;;;25.00;99.90;;;;;;4995309;28;20598;-64
2021/06/18 06:12:43;;;;;;;8.30;7.40;;;25.10;99.90;;;;;;4995152;28;21153;-64
2021/06/18 06:15:10;;;;;;;9.63;7.40;;;25.20;99.90;;;;;;4995256;28;20612;-64
2021/06/18 06:17:37;;;;;;;7.60;6.97;;;25.30;99.90;;;;;;4994949;28;20720;-65
2021/06/18 06:20:05;;;;;;;8.30;7.40;;;25.30;99.90;;;;;;4995140;28;20612;-65
2021/06/18 06:22:32;;;;;;;9.57;6.53;;;25.70;99.90;;;;;;4994923;28;20671;-65
2021/06/18 06:24:59;;;;;;;6.50;5.90;;;25.90;99.90;;;;;;5010034;28;21243;-65
2021/06/18 06:27:26;;;;;;;10.90;6.60;;;26.10;99.90;;;;;;4994786;28;20621;-65
2021/06/18 06:29:52;;;;;;;6.97;5.87;;;26.20;99.90;;;;;;4994896;28;20606;-65
2021/06/18 06:32:19;;;;;;;7.17;6.33;;;25.90;99.90;;;;;;4994863;28;20605;-65
2021/06/18 06:34:45;;;;;;;6.93;5.70;;;26.10;99.90;;;;;;4994897;28;20606;-65
2021/06/18 06:37:12;;;;;;;6.70;6.10;;;26.50;99.90;;;;;;4994943;28;20624;-66
2021/06/18 06:39:38;;;;;;;14.73;5.97;;;26.70;99.90;;;;;;4994737;28;20614;-65
2021/06/18 06:42:05;;;;;;;5.70;5.20;;;26.80;99.90;;;;;;4994601;28;21004;-65
2021/06/18 06:44:32;;;;;;;6.20;5.70;;;26.80;99.90;;;;;;4994649;28;20639;-65
2021/06/18 06:46:59;;;;;;;10.20;6.10;;;26.90;99.90;;;;;;4994881;28;20614;-65
2021/06/18 06:49:25;;;;;;;5.73;5.40;;;26.70;99.90;;;;;;4994580;28;20602;-65
2021/06/18 06:51:52;;;;;;;5.90;5.50;;;26.50;99.90;;;;;;4995373;28;20614;-65
2021/06/18 06:54:19;;;;;;;5.70;5.30;;;26.60;99.90;;;;;;4994500;28;21198;-65
2021/06/18 06:56:46;;;;;;;8.70;6.73;;;26.60;99.90;;;;;;4994319;28;20713;-65
2021/06/18 06:59:14;;;;;;;6.43;5.80;;;26.60;99.90;;;;;;4993060;28;20980;-65
2021/06/18 07:01:41;;;;;;;8.67;6.17;;;26.70;99.90;;;;;;4994492;28;20620;-65
2021/06/18 07:04:07;;;;;;;7.57;6.73;;;26.90;99.90;;;;;;4994133;28;21155;-65
2021/06/18 07:06:35;;;;;;;7.00;6.23;;;26.80;99.90;;;;;;4994308;28;20593;-65
2021/06/18 07:09:02;;;;;;;6.63;5.90;;;26.80;99.90;;;;;;4994328;28;20636;-65
2021/06/18 07:11:29;;;;;;;13.27;6.00;;;27.20;99.90;;;;;;4993178;28;20704;-65
2021/06/18 07:13:55;;;;;;;8.83;5.93;;;27.50;99.90;;;;;;4994137;28;21188;-66
2021/06/18 07:16:22;;;;;;;9.30;6.30;;;27.80;99.90;;;;;;4994134;28;20617;-66
2021/06/18 07:18:48;;;;;;;8.97;6.30;;;28.10;99.90;;;;;;4994472;28;20628;-66
2021/06/18 07:21:14;;;;;;;6.37;5.87;;;27.50;99.90;;;;;;4994144;28;20661;-66
2021/06/18 07:23:41;;;;;;;6.60;5.90;;;27.60;99.90;;;;;;4993981;28;21095;-66
2021/06/18 07:26:07;;;;;;;6.93;6.30;;;27.60;99.90;;;;;;4994026;28;20705;-64
2021/06/18 07:28:33;;;;;;;7.60;6.13;;;28.10;99.90;;;;;;4994079;28;20598;-64
2021/06/18 07:31:00;;;;;;;9.83;8.87;;;28.50;99.90;;;;;;4992902;28;20699;-65
2021/06/18 07:33:26;;;;;;;16.93;11.37;;;28.90;99.90;;;;;;5008558;28;20628;-65
2021/06/18 07:35:53;;;;;;;20.13;18.00;;;28.70;99.90;;;;;;4993608;28;20628;-65
2021/06/18 07:38:19;;;;;;;20.77;15.07;;;28.70;99.90;;;;;;4993872;28;20972;-65
2021/06/18 07:40:46;;;;;;;7.57;5.90;;;29.00;99.90;;;;;;4993470;28;20745;-65
2021/06/18 07:43:12;;;;;;;8.20;6.30;;;29.60;99.90;;;;;;4993763;28;20677;-65
2021/06/18 07:45:39;;;;;;;6.10;5.60;;;29.70;99.90;;;;;;4993598;28;20646;-65
2021/06/18 07:48:09;;;;;;;7.03;6.27;;;29.10;99.90;;;;;;4993789;28;20709;-65
2021/06/18 07:50:38;;;;;;;8.10;6.40;;;29.10;99.90;;;;;;4994071;28;20622;-65
2021/06/18 07:53:05;;;;;;;6.93;6.27;;;29.20;99.90;;;;;;4993834;28;20633;-65
2021/06/18 07:55:31;;;;;;;9.67;6.20;;;29.10;99.90;;;;;;4993658;28;20652;-65
2021/06/18 07:57:58;;;;;;;6.67;6.10;;;29.00;99.90;;;;;;4993856;28;20626;-65
2021/06/18 08:00:25;;;;;;;8.37;6.33;;;29.10;99.90;;;;;;4994020;28;20625;-65
2021/06/18 08:02:51;;;;;;;6.53;5.70;;;29.20;99.90;;;;;;4993991;28;20653;-65
2021/06/18 08:05:18;;;;;;;11.93;6.93;;;29.30;99.90;;;;;;4993695;28;20603;-65
2021/06/18 08:07:48;;;;;;;10.13;6.20;;;29.50;99.90;;;;;;4993829;28;20625;-65
2021/06/18 08:10:17;;;;;;;11.60;6.30;;;29.20;99.90;;;;;;4993819;28;20656;-66
2021/06/18 08:12:45;;;;;;;11.53;7.10;;;28.90;99.90;;;;;;4993700;28;20983;-65
2021/06/18 08:15:13;;;;;;;7.67;6.97;;;29.20;99.90;;;;;;4993653;28;20636;-65
2021/06/18 08:17:39;;;;;;;8.53;6.40;;;29.30;99.90;;;;;;4997549;28;20724;-65
2021/06/18 08:20:07;;;;;;;17.50;7.07;;;29.60;99.90;;;;;;4997388;28;20618;-65
2021/06/18 08:22:34;;;;;;;7.30;6.67;;;29.80;99.90;;;;;;4997458;28;20641;-65
2021/06/18 08:25:02;;;;;;;6.83;6.23;;;29.80;99.90;;;;;;4989477;28;21190;-66
2021/06/18 08:27:29;;;;;;;7.67;7.00;;;29.60;99.90;;;;;;4977154;28;20623;-66
2021/06/18 08:29:56;;;;;;;10.70;6.10;;;29.60;99.90;;;;;;4982588;28;20625;-65
2021/06/18 08:32:23;;;;;;;7.60;6.80;;;29.10;99.90;;;;;;4996373;28;20639;-66
2021/06/18 08:34:49;;;;;;;7.20;6.63;;;29.00;99.90;;;;;;4996609;28;20621;-66
2021/06/18 08:37:16;;;;;;;8.80;6.57;;;29.20;99.90;;;;;;4996631;28;20637;-66
2021/06/18 08:39:42;;;;;;;11.93;6.97;;;29.20;99.90;;;;;;4995367;28;20728;-66
2021/06/18 08:42:10;;;;;;;6.90;6.40;;;29.30;99.90;;;;;;4996438;28;20781;-66
2021/06/18 08:44:37;;;;;;;7.17;6.47;;;29.60;99.90;;;;;;4996121;28;20729;-66
2021/06/18 08:47:04;;;;;;;7.70;6.30;;;29.80;99.90;;;;;;4996759;28;20956;-65
2021/06/18 08:49:30;;;;;;;6.90;6.30;;;29.70;99.90;;;;;;4996718;28;20633;-66
2021/06/18 08:51:57;;;;;;;9.23;6.80;;;29.70;99.90;;;;;;4996628;28;21187;-66
2021/06/18 08:54:41;;;;;;;9.00;6.90;;;29.70;99.90;;;;;;4996741;28;20605;-65
2021/06/18 08:57:13;;;;;;;11.53;7.27;;;29.90;99.90;;;;;;4996796;28;20621;-65
2021/06/18 08:59:40;;;;;;;8.53;7.17;;;30.00;99.90;;;;;;4996923;28;20614;-65
2021/06/18 09:02:06;;;;;;;8.37;7.47;;;30.20;99.90;;;;;;4996838;28;20656;-66
2021/06/18 09:04:53;;;;;;;9.20;7.33;;;30.70;99.90;;;;;;4996921;28;20590;-66
2021/06/18 09:07:19;;;;;;;8.50;6.90;;;30.80;99.90;;;;;;4996330;28;20724;-66
2021/06/18 09:09:46;;;;;;;9.40;7.60;;;30.60;99.90;;;;;;4996511;28;21061;-66
2021/06/18 09:12:12;;;;;;;8.63;7.70;;;30.00;99.90;;;;;;4996349;28;20602;-66
2021/06/18 09:14:40;;;;;;;9.60;7.20;;;30.40;99.90;;;;;;4996402;28;20609;-65
2021/06/18 09:17:19;;;;;;;7.77;6.83;;;30.80;99.90;;;;;;4996523;28;20970;-65
2021/06/18 09:19:51;;;;;;;7.20;6.60;;;31.50;99.90;;;;;;4996441;28;20637;-66
2021/06/18 09:22:42;;;;;;;11.30;7.10;;;31.80;99.90;;;;;;4995891;28;20656;-66
2021/06/18 09:25:12;;;;;;;11.93;7.50;;;31.10;99.90;;;;;;4987101;28;20640;-66
2021/06/18 09:27:40;;;;;;;10.80;7.20;;;31.30;99.90;;;;;;4996229;28;21149;-66
2021/06/18 09:30:19;;;;;;;9.83;6.77;;;31.70;99.90;;;;;;4981682;28;20981;-66
2021/06/18 09:33:02;;;;;;;7.07;6.47;;;31.00;99.90;;;;;;4995382;28;20625;-66
2021/06/18 09:35:30;;;;;;;6.90;6.27;;;30.60;99.90;;;;;;4995455;28;20632;-67
2021/06/18 09:37:59;;;;;;;8.23;6.50;;;30.50;99.90;;;;;;4995533;28;20635;-66
2021/06/18 09:40:27;;;;;;;10.07;7.30;;;30.50;99.90;;;;;;4995173;28;20659;-67
2021/06/18 09:43:15;;;;;;;10.03;6.90;;;30.80;99.90;;;;;;4995391;28;20727;-67
2021/06/18 09:45:41;;;;;;;7.07;6.43;;;30.00;99.90;;;;;;4994728;28;20657;-66
2021/06/18 09:48:21;;;;;;;7.70;6.87;;;30.00;99.90;;;;;;4995417;28;21183;-67
2021/06/18 09:51:00;;;;;;;9.80;7.10;;;30.30;99.90;;;;;;4994992;28;20625;-66
2021/06/18 09:53:28;;;;;;;7.23;6.53;;;30.30;99.90;;;;;;4995645;28;21183;-66
2021/06/18 09:56:02;;;;;;;7.40;6.90;;;30.00;99.90;;;;;;4995003;28;20617;-66
2021/06/18 09:58:36;;;;;;;9.07;6.67;;;30.20;99.90;;;;;;4995099;28;20749;-66
2021/06/18 10:01:16;;;;;;;7.57;6.77;;;29.70;1.00;;;;;;4994965;28;20586;-66
2021/06/18 10:04:03;;;;;;;8.20;6.93;;;29.70;1.00;;;;;;5003982;28;20666;-66
2021/06/18 10:06:31;;;;;;;12.90;7.17;;;29.90;1.00;;;;;;4992605;28;20620;-66
2021/06/18 10:09:00;;;;;;;7.33;6.50;;;29.90;99.90;;;;;;4995011;28;20634;-66
2021/06/18 10:11:30;;;;;;;19.37;7.63;;;30.20;99.90;;;;;;4994567;28;20653;-66
2021/06/18 10:13:57;;;;;;;16.20;6.87;;;30.30;99.90;;;;;;4995433;28;20628;-66
2021/06/18 10:16:26;;;;;;;16.63;7.00;;;30.70;99.90;;;;;;4995044;28;21043;-66
2021/06/18 10:18:59;;;;;;;39.00;10.70;;;30.60;1.00;;;;;;4994091;28;20631;-66
2021/06/18 10:21:28;;;;;;;27.00;9.23;;;30.60;77.70;;;;;;4993428;28;21152;-66
2021/06/18 10:23:58;;;;;;;7.40;6.60;;;30.40;1.00;;;;;;4995040;28;20637;-66
2021/06/18 10:26:27;;;;;;;14.90;8.20;;;31.20;1.00;;;;;;4995202;28;20617;-66
2021/06/18 10:28:57;;;;;;;9.93;6.90;;;31.60;99.90;;;;;;4995029;28;20608;-66
2021/06/18 10:31:32;;;;;;;11.43;7.53;;;31.20;1.00;;;;;;4995153;28;20660;-66
2021/06/18 10:34:16;;;;;;;8.43;6.83;;;31.30;1.00;;;;;;4994446;28;20631;-66
2021/06/18 10:36:44;;;;;;;18.03;7.90;;;32.20;99.90;;;;;;4981279;28;21162;-66
2021/06/18 10:39:19;;;;;;;8.80;7.10;;;32.30;99.90;;;;;;4993691;28;20620;-66
2021/06/18 10:41:57;;;;;;;9.93;7.87;;;31.30;26.80;;;;;;4994081;28;20732;-66
2021/06/18 10:44:39;;;;;;;9.47;6.93;;;31.40;1.00;;;;;;4994000;28;21202;-66
2021/06/18 10:47:30;;;;;;;8.73;8.03;;;32.00;99.90;;;;;;4982108;28;20954;-66
2021/06/18 10:49:58;;;;;;;8.50;7.70;;;32.30;99.90;;;;;;4993572;28;20984;-66
2021/06/18 10:52:26;;;;;;;8.37;7.77;;;32.80;1.00;;;;;;4994389;28;20701;-66
2021/06/18 10:54:55;;;;;;;9.23;7.83;;;33.10;1.00;;;;;;4993558;28;20621;-66
2021/06/18 10:57:24;;;;;;;8.97;8.27;;;32.80;1.00;;;;;;4993723;28;20616;-66
2021/06/18 10:59:51;;;;;;;13.50;7.67;;;32.50;86.20;;;;;;4993815;28;20625;-66
2021/06/18 11:02:21;;;;;;;8.43;7.80;;;32.10;99.90;;;;;;4993399;28;20641;-66
2021/06/18 11:04:54;;;;;;;10.50;8.80;;;32.10;1.00;;;;;;4993590;28;20747;-66
2021/06/18 11:07:31;;;;;;;8.93;8.23;;;32.10;99.90;;;;;;4994053;28;20673;-66
2021/06/18 11:10:07;;;;;;;8.70;7.80;;;32.60;1.00;;;;;;4988702;28;20680;-66
2021/06/18 11:13:10;;;;;;;15.93;7.77;;;33.00;99.90;;;;;;4993396;28;20933;-65
2021/06/18 11:15:39;;;;;;;10.07;8.80;;;32.80;99.90;;;;;;4967967;28;20650;-65
2021/06/18 11:18:13;;;;;;;8.47;7.80;;;33.10;99.90;;;;;;4979895;28;20622;-65
2021/06/18 11:20:39;;;;;;;11.53;8.97;;;33.30;1.00;;;;;;4993482;28;20622;-66
2021/06/18 11:23:16;;;;;;;10.73;8.43;;;33.50;99.90;;;;;;4993187;28;20755;-66
2021/06/18 11:25:49;;;;;;;9.20;8.40;;;33.90;1.00;;;;;;4993467;28;20678;-66
2021/06/18 11:28:22;;;;;;;10.07;9.07;;;34.10;1.00;;;;;;4993339;28;20728;-66
2021/06/18 11:31:13;;;;;;;11.27;9.80;;;34.20;99.90;;;;;;4995760;28;20917;-66
2021/06/18 11:33:46;;;;;;;11.40;10.40;;;34.70;99.90;;;;;;4994104;28;20994;-66
2021/06/18 11:36:24;;;;;;;10.30;9.40;;;35.10;99.90;;;;;;4993293;28;20955;-66
2021/06/18 11:39:12;;;;;;;10.10;9.20;;;35.70;99.90;;;;;;4993434;28;21006;-66
2021/06/18 11:41:43;;;;;;;9.57;8.80;;;36.20;1.00;;;;;;4993356;28;21009;-66
2021/06/18 11:44:11;;;;;;;11.47;10.13;;;35.40;1.00;;;;;;4993226;28;20661;-67
2021/06/18 11:46:38;;;;;;;11.03;10.23;;;35.80;1.00;;;;;;4993244;28;20630;-66
2021/06/18 11:49:19;;;;;;;10.77;9.93;;;35.90;99.90;;;;;;4993313;28;20975;-68
2021/06/18 11:51:50;;;;;;;10.20;9.40;;;35.90;1.00;;;;;;4996772;28;20635;-66
2021/06/18 11:54:29;;;;;;;10.83;9.97;;;35.80;99.90;;;;;;4998112;28;20625;-67
2021/06/18 11:57:00;;;;;;;9.87;8.90;;;35.30;58.90;;;;;;4997892;28;20625;-67
2021/06/18 11:59:27;;;;;;;10.17;9.23;;;35.90;1.00;;;;;;4998032;28;20616;-67
2021/06/18 12:01:53;;;;;;;9.10;8.30;;;36.50;1.00;;;;;;4997935;28;21156;-66
2021/06/18 12:04:20;;;;;;;9.67;8.80;;;35.50;1.00;;;;;;4997689;28;20607;-67
2021/06/18 12:06:47;;;;;;;12.00;9.03;;;36.40;60.60;;;;;;4996412;28;20980;-66
2021/06/18 12:09:14;;;;;;;10.17;9.37;;;36.60;99.90;;;;;;4997176;28;20621;-66
2021/06/18 12:11:44;;;;;;;11.00;10.10;;;36.20;99.90;;;;;;4997422;28;20670;-66
2021/06/18 12:14:13;;;;;;;12.17;10.97;;;35.80;1.00;;;;;;4997592;28;20650;-66
2021/06/18 12:16:49;;;;;;;9.87;9.03;;;35.10;21.20;;;;;;4997391;28;20628;-66
2021/06/18 12:19:30;;;;;;;10.20;9.20;;;34.80;1.00;;;;;;4996291;28;20660;-66
2021/06/18 12:22:04;;;;;;;11.13;9.07;;;34.60;1.00;;;;;;4997226;28;21077;-67
2021/06/18 12:24:51;;;;;;;9.37;8.57;;;35.00;1.00;;;;;;4996980;28;20622;-66
2021/06/18 12:27:29;;;;;;;9.47;8.50;;;35.40;89.90;;;;;;4987573;28;20653;-66
2021/06/18 12:29:58;;;;;;;15.80;8.93;;;35.10;99.90;;;;;;4995919;28;20573;-66
2021/06/18 12:32:30;;;;;;;9.97;9.10;;;35.90;99.90;;;;;;4996854;28;20633;-67
2021/06/18 12:35:03;;;;;;;9.83;8.93;;;35.80;99.90;;;;;;4997174;28;20663;-67
2021/06/18 12:37:37;;;;;;;10.37;9.47;;;36.10;1.00;;;;;;4996526;28;20621;-66
2021/06/18 12:40:06;;;;;;;10.30;9.40;;;36.40;99.90;;;;;;4996943;28;20585;-66
2021/06/18 12:42:40;;;;;;;10.13;9.30;;;36.60;1.00;;;;;;4997223;28;20635;-66
2021/06/18 12:45:18;;;;;;;10.67;9.63;;;37.90;1.00;;;;;;4995262;28;21223;-66
2021/06/18 12:48:08;;;;;;;11.83;9.90;;;37.50;1.00;;;;;;4997025;28;20612;-66
2021/06/18 12:50:42;;;;;;;9.20;8.60;;;38.60;1.00;;;;;;4994198;28;20665;-68
2021/06/18 12:53:12;;;;;;;9.10;8.40;;;38.70;99.90;;;;;;4996697;28;20561;-68